createdAt,value
2019-03-31T00:02:21.265Z,37.90
2019-03-31T00:04:58.708Z,38.00
2019-03-31T00:07:35.955Z,38.20
2019-03-31T00:10:13.684Z,38.00
2019-03-31T00:12:50.263Z,37.90
2019-03-31T00:15:27.269Z,37.90
2019-03-31T00:18:03.690Z,37.90
2019-03-31T00:20:40.716Z,37.90
2019-03-31T00:23:18.147Z,37.90
2019-03-31T00:25:55.656Z,37.90
2019-03-31T00:28:32.317Z,37.90
2019-03-31T00:31:21.575Z,37.90
2019-03-31T00:33:48.843Z,37.90
2019-03-31T00:36:25.515Z,37.90
2019-03-31T00:39:02.231Z,37.90
2019-03-31T00:41:39.461Z,37.90
2019-03-31T00:44:16.343Z,37.90
2019-03-31T00:46:54.134Z,37.90
2019-03-31T00:49:31.276Z,37.90
2019-03-31T00:52:08.424Z,37.90
2019-03-31T00:54:45.586Z,37.90
2019-03-31T00:57:23.225Z,37.90
2019-03-31T00:59:59.879Z,37.90
2019-03-31T01:02:36.677Z,37.90
2019-03-31T01:05:13.832Z,37.90
2019-03-31T01:07:52.049Z,37.90
2019-03-31T01:10:29.676Z,37.90
2019-03-31T01:13:06.981Z,37.90
2019-03-31T01:15:43.380Z,37.90
2019-03-31T01:18:20.204Z,37.90
2019-03-31T01:20:56.680Z,37.90
2019-03-31T01:23:33.585Z,37.90
2019-03-31T01:26:10.071Z,37.90
2019-03-31T01:28:48.590Z,37.80
2019-03-31T01:31:28.192Z,37.80
2019-03-31T01:34:05.477Z,37.80
2019-03-31T01:36:42.057Z,37.80
2019-03-31T01:39:21.146Z,37.80
2019-03-31T01:41:58.027Z,37.80
2019-03-31T01:44:34.813Z,37.80
2019-03-31T01:47:13.451Z,37.90
2019-03-31T01:49:50.795Z,37.70
2019-03-31T01:52:28.130Z,37.80
2019-03-31T01:55:07.661Z,37.80
2019-03-31T01:57:46.260Z,37.70
2019-03-31T02:00:38.565Z,37.20
2019-03-31T02:03:15.511Z,37.70
2019-03-31T02:05:52.578Z,37.70
2019-03-31T02:08:29.159Z,37.70
2019-03-31T02:11:06.351Z,37.70
2019-03-31T02:13:43.058Z,37.70
2019-03-31T02:16:20.427Z,37.70
2019-03-31T02:18:56.956Z,37.70
2019-03-31T02:21:33.200Z,37.70
2019-03-31T02:24:09.881Z,37.70
2019-03-31T02:26:46.861Z,37.60
2019-03-31T02:29:23.786Z,37.60
2019-03-31T02:32:01.246Z,37.60
2019-03-31T02:34:38.009Z,37.60
2019-03-31T02:37:15.521Z,37.60
2019-03-31T02:39:52.165Z,37.60
2019-03-31T02:42:30.317Z,37.60
2019-03-31T02:45:07.528Z,37.90
2019-03-31T02:47:44.574Z,37.50
2019-03-31T02:50:47.573Z,37.50
2019-03-31T02:53:24.113Z,37.50
2019-03-31T02:56:00.780Z,37.60
2019-03-31T02:58:39.143Z,37.50
2019-03-31T03:01:16.706Z,37.50
2019-03-31T03:03:54.562Z,37.50
2019-03-31T03:06:32.156Z,37.40
2019-03-31T03:09:09.599Z,37.50
2019-03-31T03:11:47.052Z,37.50
2019-03-31T03:14:26.818Z,37.40
2019-03-31T03:17:03.597Z,37.40
2019-03-31T03:19:40.901Z,37.40
2019-03-31T03:22:17.561Z,37.40
2019-03-31T03:24:54.079Z,37.40
2019-03-31T03:27:31.404Z,37.50
2019-03-31T03:30:09.279Z,37.40
2019-03-31T03:33:12.451Z,37.30
2019-03-31T03:35:24.625Z,37.30
2019-03-31T03:38:01.671Z,37.30
2019-03-31T03:40:39.088Z,37.30
2019-03-31T03:43:16.169Z,37.30
2019-03-31T03:45:54.297Z,37.30
2019-03-31T03:48:30.827Z,37.30
2019-03-31T03:51:07.494Z,37.30
2019-03-31T03:53:44.445Z,37.20
2019-03-31T03:56:22.025Z,37.20
2019-03-31T03:58:59.160Z,37.30
2019-03-31T04:01:37.344Z,37.20
2019-03-31T04:04:13.931Z,37.20
2019-03-31T04:06:51.867Z,37.10
2019-03-31T04:09:28.725Z,37.20
2019-03-31T04:12:06.110Z,37.10
2019-03-31T04:14:42.413Z,37.10
2019-03-31T04:17:19.015Z,37.20
2019-03-31T04:19:56.027Z,37.10
2019-03-31T04:22:33.534Z,37.10
2019-03-31T04:25:10.003Z,37.10
2019-03-31T04:27:46.897Z,37.10
2019-03-31T04:30:23.720Z,37.10
2019-03-31T04:33:03.643Z,37.10
2019-03-31T04:35:41.271Z,37.10
2019-03-31T04:38:19.119Z,37.00
2019-03-31T04:40:56.688Z,37.00
2019-03-31T04:43:33.974Z,37.10
2019-03-31T04:46:10.566Z,37.00
2019-03-31T04:48:47.681Z,36.90
2019-03-31T04:51:24.388Z,37.00
2019-03-31T04:54:00.806Z,37.00
2019-03-31T04:56:38.454Z,37.00
2019-03-31T04:59:16.493Z,36.90
2019-03-31T05:01:52.948Z,37.00
2019-03-31T05:04:30.129Z,36.90
2019-03-31T05:07:06.900Z,37.00
2019-03-31T05:09:44.324Z,36.90
2019-03-31T05:12:21.040Z,36.90
2019-03-31T05:14:58.465Z,36.90
2019-03-31T05:17:36.047Z,36.90
2019-03-31T05:20:13.205Z,36.90
2019-03-31T05:22:52.666Z,36.90
2019-03-31T05:25:28.430Z,36.80
2019-03-31T05:28:06.900Z,36.80
2019-03-31T05:30:44.791Z,36.80
2019-03-31T05:33:21.192Z,36.90
2019-03-31T05:35:58.320Z,36.80
2019-03-31T05:38:35.870Z,36.80
2019-03-31T05:41:12.524Z,36.80
2019-03-31T05:43:49.340Z,36.90
2019-03-31T05:46:27.489Z,36.80
2019-03-31T05:49:03.968Z,36.80
2019-03-31T05:51:40.446Z,36.70
2019-03-31T05:54:16.870Z,36.70
2019-03-31T05:56:54.001Z,37.40
2019-03-31T05:59:30.961Z,36.80
2019-03-31T06:02:08.668Z,36.70
2019-03-31T06:04:45.830Z,36.70
2019-03-31T06:07:22.697Z,36.70
2019-03-31T06:09:59.579Z,36.70
2019-03-31T06:12:37.250Z,37.30
2019-03-31T06:15:14.162Z,36.70
2019-03-31T06:17:51.040Z,36.70
2019-03-31T06:20:27.698Z,36.70
2019-03-31T06:23:06.529Z,36.70
2019-03-31T06:25:43.301Z,36.70
2019-03-31T06:28:20.638Z,36.70
2019-03-31T06:30:58.169Z,36.70
2019-03-31T06:33:35.840Z,36.70
2019-03-31T06:36:12.482Z,36.60
2019-03-31T06:38:50.168Z,36.60
2019-03-31T06:41:27.717Z,36.60
2019-03-31T06:44:05.031Z,36.60
2019-03-31T06:46:41.676Z,36.70
2019-03-31T06:49:19.818Z,36.70
2019-03-31T06:51:56.357Z,36.70
2019-03-31T06:54:34.600Z,36.70
2019-03-31T06:57:12.059Z,36.60
2019-03-31T06:59:49.385Z,36.60
2019-03-31T07:02:26.325Z,36.60
2019-03-31T07:05:03.602Z,36.80
2019-03-31T07:07:41.081Z,36.80
2019-03-31T07:10:18.375Z,36.90
2019-03-31T07:12:55.328Z,36.90
2019-03-31T07:15:32.343Z,36.90
2019-03-31T07:18:08.977Z,37.00
2019-03-31T07:20:45.658Z,36.90
2019-03-31T07:23:22.784Z,37.00
2019-03-31T07:26:00.185Z,37.00
2019-03-31T07:28:37.483Z,37.00
2019-03-31T07:31:15.021Z,37.00
2019-03-31T07:33:52.593Z,36.80
2019-03-31T07:36:29.796Z,36.90
2019-03-31T07:39:07.915Z,37.00
2019-03-31T07:41:44.543Z,37.10
2019-03-31T07:44:22.082Z,36.90
2019-03-31T07:46:58.736Z,36.70
2019-03-31T07:49:35.645Z,36.50
2019-03-31T07:52:12.419Z,36.20
2019-03-31T07:54:49.415Z,35.90
2019-03-31T07:57:26.577Z,35.60
2019-03-31T08:00:03.144Z,35.20
2019-03-31T08:02:39.806Z,35.10
2019-03-31T08:05:32.126Z,35.00
2019-03-31T08:07:57.035Z,34.60
2019-03-31T08:10:34.347Z,34.70
2019-03-31T08:13:11.521Z,34.50
2019-03-31T08:15:48.418Z,34.50
2019-03-31T08:18:25.650Z,34.40
2019-03-31T08:21:02.664Z,34.40
2019-03-31T08:23:39.248Z,34.40
2019-03-31T08:26:16.861Z,34.40
2019-03-31T08:28:53.380Z,34.40
2019-03-31T08:31:29.910Z,34.30
2019-03-31T08:34:07.038Z,34.30
2019-03-31T08:36:43.684Z,34.30
2019-03-31T08:39:20.936Z,34.30
2019-03-31T08:41:58.466Z,34.20
2019-03-31T08:44:35.122Z,34.10
2019-03-31T08:47:12.878Z,34.10
2019-03-31T08:49:50.219Z,34.10
2019-03-31T08:52:27.259Z,34.10
2019-03-31T08:55:05.033Z,34.10
2019-03-31T08:57:42.258Z,34.20
2019-03-31T09:00:27.222Z,34.20
2019-03-31T09:03:04.678Z,34.90
2019-03-31T09:05:42.508Z,34.10
2019-03-31T09:08:19.245Z,34.10
2019-03-31T09:10:56.001Z,34.10
2019-03-31T09:13:33.354Z,34.10
2019-03-31T09:16:10.244Z,34.10
2019-03-31T09:18:46.673Z,34.10
2019-03-31T09:21:23.916Z,34.00
2019-03-31T09:24:01.197Z,33.90
2019-03-31T09:26:38.292Z,34.00
2019-03-31T09:29:15.570Z,34.00
2019-03-31T09:31:52.192Z,33.80
2019-03-31T09:34:29.514Z,33.60
2019-03-31T09:37:06.288Z,34.00
2019-03-31T09:39:43.113Z,33.50
2019-03-31T09:42:20.032Z,33.50
2019-03-31T09:44:56.533Z,33.70
2019-03-31T09:47:33.642Z,33.60
2019-03-31T09:50:12.210Z,33.70
2019-03-31T09:52:48.498Z,33.70
2019-03-31T09:55:25.102Z,33.60
2019-03-31T09:58:01.800Z,33.60
2019-03-31T10:00:51.460Z,33.60
2019-03-31T10:03:28.589Z,33.50
2019-03-31T10:06:11.011Z,33.60
2019-03-31T10:08:44.934Z,33.30
2019-03-31T10:11:22.528Z,33.50
2019-03-31T10:13:59.444Z,33.50
2019-03-31T10:16:36.565Z,33.40
2019-03-31T10:19:14.355Z,33.90
2019-03-31T10:21:51.325Z,33.50
2019-03-31T10:24:29.019Z,33.40
2019-03-31T10:27:06.446Z,33.40
2019-03-31T10:29:43.908Z,33.40
2019-03-31T10:32:20.671Z,33.30
2019-03-31T10:34:58.024Z,33.30
2019-03-31T10:37:34.277Z,33.30
2019-03-31T10:40:11.896Z,33.20
2019-03-31T10:42:48.845Z,33.20
2019-03-31T10:45:25.816Z,33.10
2019-03-31T10:48:02.773Z,33.20
2019-03-31T10:50:40.156Z,33.10
2019-03-31T10:53:16.874Z,33.20
2019-03-31T10:55:54.171Z,33.10
2019-03-31T10:58:30.892Z,33.20
2019-03-31T11:01:08.244Z,33.00
2019-03-31T11:03:45.494Z,33.00
2019-03-31T11:06:22.889Z,32.90
2019-03-31T11:08:59.861Z,32.80
2019-03-31T11:11:36.712Z,32.80
2019-03-31T11:14:13.222Z,32.60
2019-03-31T11:16:50.016Z,32.80
2019-03-31T11:19:27.037Z,32.80
2019-03-31T11:22:12.044Z,32.80
2019-03-31T11:24:49.095Z,32.90
2019-03-31T11:27:25.832Z,32.80
2019-03-31T11:30:03.260Z,32.80
2019-03-31T11:32:40.581Z,32.80
2019-03-31T11:35:17.929Z,32.80
2019-03-31T11:37:54.765Z,32.80
2019-03-31T11:40:31.643Z,32.70
2019-03-31T11:43:09.126Z,32.60
2019-03-31T11:45:46.529Z,32.60
2019-03-31T11:48:23.998Z,32.70
2019-03-31T11:51:00.757Z,32.60
2019-03-31T11:53:37.389Z,32.60
2019-03-31T11:56:14.384Z,32.40
2019-03-31T11:58:51.509Z,32.50
2019-03-31T12:01:28.374Z,32.40
2019-03-31T12:04:05.690Z,32.40
2019-03-31T12:06:42.627Z,32.30
2019-03-31T12:09:19.260Z,32.40
2019-03-31T12:11:56.705Z,32.30
2019-03-31T12:14:33.551Z,32.30
2019-03-31T12:17:10.532Z,32.20
2019-03-31T12:19:48.920Z,32.10
2019-03-31T12:22:25.893Z,32.10
2019-03-31T12:25:02.560Z,32.00
2019-03-31T12:27:41.041Z,32.00
2019-03-31T12:30:27.246Z,32.00
2019-03-31T12:33:04.420Z,32.00
2019-03-31T12:35:42.097Z,32.10
2019-03-31T12:38:19.045Z,32.10
2019-03-31T12:40:56.771Z,31.90
2019-03-31T12:43:33.161Z,32.00
2019-03-31T12:46:11.173Z,31.90
2019-03-31T12:48:48.236Z,31.90
2019-03-31T12:51:26.165Z,31.90
2019-03-31T12:54:03.260Z,32.00
2019-03-31T12:56:40.864Z,31.90
2019-03-31T12:59:17.883Z,32.00
2019-03-31T13:01:54.452Z,31.90
2019-03-31T13:04:30.687Z,32.00
2019-03-31T13:07:07.484Z,31.90
2019-03-31T13:09:44.029Z,31.90
2019-03-31T13:12:22.049Z,31.90
2019-03-31T13:14:59.306Z,31.90
2019-03-31T13:17:36.428Z,32.00
2019-03-31T13:20:13.540Z,31.90
2019-03-31T13:22:50.329Z,31.90
2019-03-31T13:25:26.588Z,32.20
2019-03-31T13:28:05.671Z,32.20
2019-03-31T13:30:42.526Z,31.90
2019-03-31T13:33:19.492Z,32.00
2019-03-31T13:35:55.793Z,32.00
2019-03-31T13:38:32.848Z,32.20
2019-03-31T13:41:09.388Z,32.10
2019-03-31T13:43:47.105Z,32.10
2019-03-31T13:46:24.189Z,32.20
2019-03-31T13:49:01.175Z,32.30
2019-03-31T13:51:38.044Z,32.30
2019-03-31T13:54:16.150Z,32.40
2019-03-31T13:56:53.921Z,32.50
2019-03-31T13:59:32.572Z,32.50
2019-03-31T14:02:09.453Z,33.00
2019-03-31T14:04:51.704Z,32.90
2019-03-31T14:07:25.540Z,32.80
2019-03-31T14:10:03.473Z,32.70
2019-03-31T14:12:40.422Z,32.80
2019-03-31T14:15:19.424Z,32.90
2019-03-31T14:17:55.434Z,33.00
2019-03-31T14:20:32.204Z,32.90
2019-03-31T14:23:09.433Z,32.80
2019-03-31T14:25:46.338Z,33.00
2019-03-31T14:28:23.249Z,32.90
2019-03-31T14:31:00.700Z,32.90
2019-03-31T14:33:37.200Z,33.00
2019-03-31T14:36:14.914Z,33.10
2019-03-31T14:38:51.499Z,33.30
2019-03-31T14:41:29.089Z,33.20
2019-03-31T14:44:06.069Z,33.30
2019-03-31T14:46:43.462Z,33.60
2019-03-31T14:49:20.858Z,33.50
2019-03-31T14:52:01.075Z,33.60
2019-03-31T14:54:36.536Z,33.90
2019-03-31T14:57:14.340Z,34.00
2019-03-31T14:59:51.109Z,34.00
2019-03-31T15:02:27.502Z,33.90
2019-03-31T15:05:04.657Z,34.10
2019-03-31T15:07:42.155Z,34.10
2019-03-31T15:10:19.432Z,34.20
2019-03-31T15:12:57.201Z,34.20
2019-03-31T15:15:35.715Z,34.30
2019-03-31T15:18:12.991Z,34.30
2019-03-31T15:20:50.138Z,34.40
2019-03-31T15:23:29.535Z,34.60
2019-03-31T15:26:06.804Z,34.60
2019-03-31T15:28:45.611Z,34.60
2019-03-31T15:31:22.602Z,34.60
2019-03-31T15:33:59.684Z,34.90
2019-03-31T15:36:36.776Z,34.70
2019-03-31T15:39:14.134Z,34.80
2019-03-31T15:41:51.173Z,34.80
2019-03-31T15:44:28.427Z,35.00
2019-03-31T15:47:04.882Z,35.10
2019-03-31T15:49:42.031Z,35.10
2019-03-31T15:52:18.599Z,35.20
2019-03-31T15:54:55.494Z,35.10
2019-03-31T15:57:32.541Z,35.20
2019-03-31T16:00:10.315Z,35.30
2019-03-31T16:02:46.575Z,35.20
2019-03-31T16:05:24.146Z,35.30
2019-03-31T16:08:00.274Z,35.50
2019-03-31T16:10:36.305Z,35.40
2019-03-31T16:13:12.586Z,35.50
2019-03-31T16:15:49.378Z,35.50
2019-03-31T16:18:25.937Z,35.40
2019-03-31T16:21:02.264Z,35.50
2019-03-31T16:23:39.137Z,35.50
2019-03-31T16:26:15.169Z,35.50
2019-03-31T16:28:51.595Z,35.60
2019-03-31T16:31:28.912Z,35.50
2019-03-31T16:34:05.148Z,35.50
2019-03-31T16:36:41.365Z,35.60
2019-03-31T16:39:17.306Z,35.60
2019-03-31T16:41:53.849Z,35.70
2019-03-31T16:44:29.892Z,35.70
2019-03-31T16:47:06.704Z,35.60
2019-03-31T16:49:43.350Z,35.80
2019-03-31T16:52:20.348Z,35.90
2019-03-31T16:54:57.201Z,35.80
2019-03-31T16:57:33.127Z,35.80
2019-03-31T17:00:09.645Z,35.70
2019-03-31T17:02:45.989Z,35.80
2019-03-31T17:05:22.783Z,35.80
2019-03-31T17:07:59.464Z,35.80
2019-03-31T17:10:35.201Z,35.70
2019-03-31T17:13:11.756Z,35.80
2019-03-31T17:15:47.890Z,35.80
2019-03-31T17:18:24.931Z,35.70
2019-03-31T17:21:01.385Z,35.70
2019-03-31T17:23:37.721Z,35.70
2019-03-31T17:26:14.038Z,35.70
2019-03-31T17:28:50.404Z,35.80
2019-03-31T17:31:26.649Z,35.70
2019-03-31T17:34:02.789Z,35.90
2019-03-31T17:36:38.655Z,35.70
2019-03-31T17:39:15.018Z,35.80
2019-03-31T17:41:51.493Z,35.80
2019-03-31T17:44:28.189Z,35.70
2019-03-31T17:47:05.197Z,35.80
2019-03-31T17:49:41.741Z,35.80
2019-03-31T17:52:18.871Z,35.80
2019-03-31T17:54:55.705Z,35.80
2019-03-31T17:57:32.147Z,35.80
2019-03-31T18:00:10.157Z,35.80
2019-03-31T18:02:46.844Z,35.90
2019-03-31T18:05:24.048Z,35.80
2019-03-31T18:08:00.824Z,35.90
2019-03-31T18:10:37.652Z,35.90
2019-03-31T18:13:13.826Z,35.90
2019-03-31T18:15:50.378Z,35.90
2019-03-31T18:18:26.567Z,35.90
2019-03-31T18:21:04.151Z,35.90
2019-03-31T18:23:42.112Z,35.90
2019-03-31T18:26:20.506Z,35.90
2019-03-31T18:28:56.970Z,35.90
2019-03-31T18:31:33.351Z,35.90
2019-03-31T18:34:09.280Z,35.90
2019-03-31T18:36:45.719Z,35.90
2019-03-31T18:39:22.011Z,36.00
2019-03-31T18:41:59.930Z,36.00
2019-03-31T18:44:36.622Z,36.00
2019-03-31T18:47:13.157Z,36.00
2019-03-31T18:49:49.474Z,36.00
2019-03-31T18:52:25.755Z,36.10
2019-03-31T18:55:28.217Z,36.10
2019-03-31T18:58:29.403Z,36.10
2019-03-31T19:01:24.874Z,36.10
2019-03-31T19:04:23.785Z,36.10
2019-03-31T19:07:34.559Z,36.10
2019-03-31T19:10:48.844Z,36.10
2019-03-31T19:13:32.129Z,36.10
2019-03-31T19:16:26.500Z,36.10
2019-03-31T19:19:12.730Z,36.50
2019-03-31T19:22:00.113Z,36.10
2019-03-31T19:24:46.703Z,36.10
2019-03-31T19:27:48.763Z,36.10
2019-03-31T19:30:49.738Z,36.10
2019-03-31T19:33:36.378Z,36.10
2019-03-31T19:36:30.871Z,36.20
2019-03-31T19:39:37.298Z,36.10
2019-03-31T19:42:32.564Z,36.10
2019-03-31T19:45:34.440Z,36.30
2019-03-31T19:48:29.334Z,36.30
2019-03-31T19:51:24.591Z,36.40
2019-03-31T19:54:09.899Z,36.30
2019-03-31T19:57:04.371Z,36.30
2019-03-31T19:59:58.788Z,36.50
2019-03-31T20:03:02.698Z,36.60
2019-03-31T20:06:13.664Z,36.70
2019-03-31T20:09:07.345Z,36.60
2019-03-31T20:11:53.440Z,36.70
2019-03-31T20:14:53.361Z,36.60
2019-03-31T20:17:47.533Z,36.60
2019-03-31T20:20:50.662Z,36.60
2019-03-31T20:23:48.926Z,36.60
2019-03-31T20:26:50.957Z,36.70
2019-03-31T20:29:45.308Z,36.70
2019-03-31T20:32:45.635Z,36.70
2019-03-31T20:35:39.888Z,36.70
2019-03-31T20:38:44.440Z,36.70
2019-03-31T20:41:31.523Z,36.70
2019-03-31T20:44:08.551Z,36.80
2019-03-31T20:46:44.974Z,36.80
2019-03-31T20:49:23.378Z,36.70
2019-03-31T20:51:59.257Z,37.40
2019-03-31T20:54:35.985Z,37.10
2019-03-31T20:57:12.291Z,36.70
2019-03-31T20:59:49.396Z,36.70
2019-03-31T21:02:26.676Z,36.70
2019-03-31T21:05:03.327Z,36.80
2019-03-31T21:07:39.741Z,36.70
2019-03-31T21:10:16.219Z,36.70
2019-03-31T21:12:52.479Z,36.70
2019-03-31T21:15:28.970Z,36.80
2019-03-31T21:18:05.378Z,36.70
2019-03-31T21:20:41.860Z,36.70
2019-03-31T21:23:18.212Z,36.70
2019-03-31T21:25:55.126Z,36.70
2019-03-31T21:28:31.907Z,36.70
2019-03-31T21:31:09.437Z,36.70
2019-03-31T21:33:45.747Z,36.70
2019-03-31T21:36:21.998Z,36.70
2019-03-31T21:38:58.250Z,36.70
2019-03-31T21:41:34.594Z,37.40
2019-03-31T21:44:10.470Z,36.70
2019-03-31T21:46:47.862Z,36.70
2019-03-31T21:49:23.860Z,36.80
2019-03-31T21:52:00.060Z,36.70
2019-03-31T21:54:36.529Z,36.80
2019-03-31T21:57:13.012Z,37.20
2019-03-31T21:59:49.959Z,36.70
2019-03-31T22:02:25.922Z,36.70
2019-03-31T22:05:02.423Z,36.70
2019-03-31T22:07:39.292Z,36.70
2019-03-31T22:10:16.042Z,36.70
2019-03-31T22:12:53.121Z,36.70
2019-03-31T22:15:29.621Z,36.70
2019-03-31T22:18:06.425Z,36.70
2019-03-31T22:20:42.320Z,36.70
2019-03-31T22:23:18.846Z,36.80
2019-03-31T22:25:54.782Z,36.80
2019-03-31T22:28:31.958Z,36.80
2019-03-31T22:31:08.374Z,36.80
2019-03-31T22:33:44.317Z,36.80
2019-03-31T22:36:25.501Z,36.90
2019-03-31T22:39:02.916Z,36.80
2019-03-31T22:41:39.546Z,36.80
2019-03-31T22:44:15.892Z,36.80
2019-03-31T22:46:54.543Z,36.80
2019-03-31T22:49:30.693Z,36.80
2019-03-31T22:52:07.272Z,36.80
2019-03-31T22:54:49.844Z,36.80
2019-03-31T22:57:26.516Z,36.80
2019-03-31T23:00:03.837Z,36.80
2019-03-31T23:02:39.967Z,36.80
2019-03-31T23:05:16.747Z,36.80
2019-03-31T23:07:53.419Z,36.80
2019-03-31T23:10:30.473Z,36.80
2019-03-31T23:13:07.063Z,36.80
2019-03-31T23:15:43.221Z,36.80
2019-03-31T23:18:19.317Z,36.80
2019-03-31T23:20:56.075Z,36.80
2019-03-31T23:23:32.536Z,36.80
2019-03-31T23:26:08.380Z,36.80
2019-03-31T23:28:48.007Z,36.80
2019-03-31T23:31:25.378Z,36.80
2019-03-31T23:34:01.885Z,37.60
2019-03-31T23:36:38.667Z,36.90
2019-03-31T23:39:15.128Z,36.80
2019-03-31T23:41:52.645Z,37.50
2019-03-31T23:44:29.401Z,36.90
2019-03-31T23:47:05.338Z,36.90
2019-03-31T23:49:41.709Z,36.80
2019-03-31T23:52:18.716Z,36.90
2019-03-31T23:54:55.112Z,36.90
2019-03-31T23:57:41.216Z,36.90
